Lorton Lick, West Virginia
Current Conditions -  °F | °C
As of 8:52 PM on Thursday 20 Nov 2014 (Local Time) from KBLF Reporting Station
Clear Clear  
Wind Chill: 25°   Ceiling: Unl
Heat Index: 33°   Visibility: 10mi
Dew Point: 12°   Wind: 10mph
Humidity: 42%   Direction: 290°WNW
Pressure: 30.06"   Gusts: NA
Location:  37.2994°N, 81.226°W
Report Text: KBLF 210152Z AUTO 29009KT 10SM CLR 01/M11 A3006 RMK AO2 SLP191 T00061111
Loading
Personal Weather Stations






























Interactive Weather Map New forecast layout! Learn more

10-Day Weather Forecast

Advertisements
Track Severe Weather on mobile